createdAt,value
2019-03-05T00:02:16.735Z,70.20
2019-03-05T00:04:46.565Z,70.10
2019-03-05T00:07:16.445Z,70.20
2019-03-05T00:09:47.145Z,70.20
2019-03-05T00:12:17.051Z,70.10
2019-03-05T00:14:46.868Z,70.30
2019-03-05T00:17:16.772Z,70.30
2019-03-05T00:19:46.593Z,70.30
2019-03-05T00:22:17.178Z,70.20
2019-03-05T00:25:04.178Z,70.20
2019-03-05T00:27:35.626Z,70.30
2019-03-05T00:30:20.329Z,70.20
2019-03-05T00:33:02.014Z,70.30
2019-03-05T00:35:46.638Z,70.40
2019-03-05T00:38:22.180Z,70.50
2019-03-05T00:40:58.005Z,70.80
2019-03-05T00:43:30.854Z,71.00
2019-03-05T00:46:06.576Z,71.40
2019-03-05T00:48:53.964Z,71.80
2019-03-05T00:51:35.228Z,71.70
2019-03-05T00:54:13.443Z,72.10
2019-03-05T00:56:46.325Z,72.50
2019-03-05T00:59:19.308Z,72.60
2019-03-05T01:02:06.734Z,73.20
2019-03-05T01:04:42.366Z,73.60
2019-03-05T01:07:12.254Z,73.70
2019-03-05T01:09:42.121Z,74.40
2019-03-05T01:12:13.553Z,74.40
2019-03-05T01:14:44.982Z,74.60
2019-03-05T01:17:14.895Z,74.70
2019-03-05T01:19:44.762Z,75.10
2019-03-05T01:22:14.644Z,75.10
2019-03-05T01:24:44.461Z,75.30
2019-03-05T01:27:14.636Z,75.80
2019-03-05T01:29:44.498Z,75.90
2019-03-05T01:32:32.431Z,75.80
2019-03-05T01:35:06.610Z,75.90
2019-03-05T01:37:36.741Z,75.80
2019-03-05T01:40:09.834Z,75.80
2019-03-05T01:42:39.747Z,76.00
2019-03-05T01:45:11.538Z,76.10
2019-03-05T01:47:41.380Z,76.20
2019-03-05T01:50:11.885Z,75.90
2019-03-05T01:52:41.736Z,75.80
2019-03-05T01:55:11.498Z,75.90
2019-03-05T01:57:41.292Z,75.80
2019-03-05T02:00:12.182Z,76.00
2019-03-05T02:02:42.958Z,75.80
2019-03-05T02:05:13.329Z,75.90
2019-03-05T02:07:43.190Z,76.00
2019-03-05T02:10:15.736Z,75.90
2019-03-05T02:12:45.508Z,75.70
2019-03-05T02:15:15.609Z,75.60
2019-03-05T02:17:45.426Z,75.60
2019-03-05T02:20:21.090Z,75.60
2019-03-05T02:22:59.845Z,75.70
2019-03-05T02:25:44.689Z,75.00
2019-03-05T02:28:23.638Z,75.00
2019-03-05T02:31:11.315Z,75.20
2019-03-05T02:33:59.067Z,75.00
2019-03-05T02:36:34.640Z,75.20
2019-03-05T02:39:34.494Z,74.80
2019-03-05T02:42:16.069Z,74.80
2019-03-05T02:44:51.573Z,74.60
2019-03-05T02:47:43.894Z,74.60
2019-03-05T02:50:43.794Z,74.40
2019-03-05T02:53:33.799Z,74.50
2019-03-05T02:56:41.052Z,74.50
2019-03-05T02:59:09.842Z,74.10
2019-03-05T03:01:43.865Z,74.20
2019-03-05T03:04:25.910Z,74.40
2019-03-05T03:06:55.743Z,74.40
2019-03-05T03:09:31.689Z,74.00
2019-03-05T03:12:01.490Z,74.00
2019-03-05T03:14:31.680Z,74.10
2019-03-05T03:17:01.501Z,74.10
2019-03-05T03:19:31.321Z,73.90
2019-03-05T03:22:01.070Z,73.80
2019-03-05T03:24:30.828Z,73.60
2019-03-05T03:27:00.648Z,73.40
2019-03-05T03:29:31.157Z,73.40
2019-03-05T03:32:01.945Z,73.30
2019-03-05T03:34:31.798Z,73.40
2019-03-05T03:37:01.623Z,73.30
2019-03-05T03:39:31.501Z,73.20
2019-03-05T03:42:01.268Z,73.30
2019-03-05T03:44:31.025Z,73.20
2019-03-05T03:47:00.913Z,73.40
2019-03-05T03:49:30.676Z,73.10
2019-03-05T03:52:02.152Z,73.10
2019-03-05T03:54:31.925Z,72.90
2019-03-05T03:57:01.807Z,73.10
2019-03-05T03:59:31.621Z,72.70
2019-03-05T04:02:01.471Z,72.80
2019-03-05T04:04:31.485Z,72.80
2019-03-05T04:07:01.289Z,72.60
2019-03-05T04:09:31.157Z,72.60
2019-03-05T04:12:01.130Z,72.60
2019-03-05T04:14:30.901Z,72.60
2019-03-05T04:17:00.664Z,72.70
2019-03-05T04:19:31.746Z,72.60
2019-03-05T04:22:01.642Z,72.50
2019-03-05T04:24:31.418Z,72.50
2019-03-05T04:27:01.193Z,72.70
2019-03-05T04:29:31.030Z,72.60
2019-03-05T04:32:00.821Z,72.40
2019-03-05T04:34:30.642Z,72.40
2019-03-05T04:37:00.652Z,72.50
2019-03-05T04:39:30.410Z,72.40
2019-03-05T04:42:00.189Z,72.30
2019-03-05T04:44:32.657Z,72.30
2019-03-05T04:47:03.134Z,72.10
2019-03-05T04:49:34.594Z,71.90
2019-03-05T04:52:06.234Z,71.70
2019-03-05T04:54:36.045Z,71.70
2019-03-05T04:57:05.860Z,71.70
2019-03-05T04:59:35.968Z,71.50
2019-03-05T05:02:05.740Z,71.50
2019-03-05T05:04:35.504Z,71.60
2019-03-05T05:07:05.340Z,71.50
2019-03-05T05:09:37.710Z,71.50
2019-03-05T05:12:06.745Z,71.50
2019-03-05T05:14:37.357Z,71.50
2019-03-05T05:17:07.166Z,71.40
2019-03-05T05:19:36.974Z,71.50
2019-03-05T05:22:06.761Z,71.50
2019-03-05T05:24:36.645Z,71.40
2019-03-05T05:27:06.454Z,71.20
2019-03-05T05:29:36.286Z,71.00
2019-03-05T05:32:06.833Z,70.90
2019-03-05T05:34:36.808Z,70.70
2019-03-05T05:37:07.305Z,70.90
2019-03-05T05:40:13.205Z,70.70
2019-03-05T05:42:43.032Z,70.70
2019-03-05T05:45:15.952Z,70.40
2019-03-05T05:47:45.753Z,70.40
2019-03-05T05:50:15.577Z,70.50
2019-03-05T05:52:45.449Z,70.60
2019-03-05T05:55:15.219Z,70.50
2019-03-05T05:57:45.217Z,70.40
2019-03-05T06:00:16.743Z,70.40
2019-03-05T06:02:46.663Z,71.20
2019-03-05T06:05:17.439Z,70.30
2019-03-05T06:07:47.245Z,71.20
2019-03-05T06:10:17.184Z,70.30
2019-03-05T06:12:47.741Z,70.30
2019-03-05T06:15:17.708Z,69.90
2019-03-05T06:17:47.573Z,69.60
2019-03-05T06:20:17.662Z,69.60
2019-03-05T06:22:47.599Z,69.50
2019-03-05T06:25:17.502Z,69.80
2019-03-05T06:27:47.517Z,69.60
2019-03-05T06:30:34.810Z,69.00
2019-03-05T06:33:04.621Z,68.90
2019-03-05T06:35:34.465Z,68.90
2019-03-05T06:38:04.435Z,68.80
2019-03-05T06:40:34.327Z,68.80
2019-03-05T06:43:04.361Z,69.10
2019-03-05T06:45:34.202Z,68.90
2019-03-05T06:48:04.227Z,69.20
2019-03-05T06:50:34.109Z,69.30
2019-03-05T06:53:04.010Z,69.30
2019-03-05T06:55:33.853Z,69.60
2019-03-05T06:58:03.834Z,69.90
2019-03-05T07:00:35.870Z,70.10
2019-03-05T07:03:08.062Z,70.20
2019-03-05T07:06:14.240Z,70.30
2019-03-05T07:08:59.117Z,70.10
2019-03-05T07:11:40.675Z,70.00
2019-03-05T07:14:34.629Z,69.50
2019-03-05T07:17:13.175Z,69.30
2019-03-05T07:19:54.528Z,69.00
2019-03-05T07:22:23.410Z,68.70
2019-03-05T07:24:53.230Z,68.70
2019-03-05T07:27:25.794Z,69.10
2019-03-05T07:30:01.172Z,68.90
2019-03-05T07:32:33.266Z,68.60
2019-03-05T07:35:03.220Z,68.70
2019-03-05T07:37:33.120Z,68.80
2019-03-05T07:40:03.371Z,68.90
2019-03-05T07:42:33.239Z,68.60
2019-03-05T07:45:03.187Z,68.70
2019-03-05T07:47:33.043Z,68.50
2019-03-05T07:50:05.494Z,68.60
2019-03-05T07:52:35.465Z,68.70
2019-03-05T07:55:13.942Z,68.30
2019-03-05T07:57:42.629Z,68.50
2019-03-05T08:00:17.574Z,68.30
2019-03-05T08:02:47.522Z,68.20
2019-03-05T08:05:17.552Z,68.40
2019-03-05T08:07:48.292Z,68.20
2019-03-05T08:10:26.287Z,68.10
2019-03-05T08:13:02.294Z,68.10
2019-03-05T08:15:42.575Z,68.00
2019-03-05T08:18:12.468Z,68.00
2019-03-05T08:20:42.398Z,67.90
2019-03-05T08:23:12.388Z,67.50
2019-03-05T08:25:42.302Z,67.50
2019-03-05T08:28:12.114Z,67.50
2019-03-05T08:30:42.165Z,67.30
2019-03-05T08:33:12.132Z,67.50
2019-03-05T08:35:42.004Z,67.00
2019-03-05T08:38:11.815Z,67.30
2019-03-05T08:40:41.664Z,66.50
2019-03-05T08:43:11.549Z,66.40
2019-03-05T08:45:41.437Z,66.10
2019-03-05T08:48:11.262Z,66.10
2019-03-05T08:50:41.074Z,66.40
2019-03-05T08:53:10.884Z,66.00
2019-03-05T08:55:40.700Z,65.90
2019-03-05T08:58:10.550Z,65.30
2019-03-05T09:00:40.436Z,65.60
2019-03-05T09:03:10.262Z,64.60
2019-03-05T09:05:41.065Z,63.90
2019-03-05T09:08:12.546Z,64.40
2019-03-05T09:10:42.542Z,64.30
2019-03-05T09:13:12.561Z,65.20
2019-03-05T09:15:42.392Z,64.50
2019-03-05T09:18:12.222Z,64.10
2019-03-05T09:20:43.026Z,64.40
2019-03-05T09:23:12.837Z,63.80
2019-03-05T09:25:42.642Z,63.90
2019-03-05T09:28:12.490Z,63.20
2019-03-05T09:30:42.621Z,63.00
2019-03-05T09:33:12.564Z,63.00
2019-03-05T09:35:42.528Z,62.70
2019-03-05T09:38:12.453Z,62.70
2019-03-05T09:40:42.312Z,62.10
2019-03-05T09:43:12.886Z,61.20
2019-03-05T09:45:42.853Z,61.40
2019-03-05T09:48:12.719Z,61.70
2019-03-05T09:50:42.502Z,62.10
2019-03-05T09:53:12.389Z,62.00
2019-03-05T09:55:42.224Z,61.90
2019-03-05T09:58:12.101Z,59.80
2019-03-05T10:00:41.951Z,59.90
2019-03-05T10:03:11.918Z,59.40
2019-03-05T10:05:41.789Z,58.70
2019-03-05T10:08:11.718Z,58.60
2019-03-05T10:10:41.537Z,58.40
2019-03-05T10:13:13.387Z,58.50
2019-03-05T10:15:43.013Z,57.80
2019-03-05T10:18:13.323Z,57.30
2019-03-05T10:20:43.710Z,57.20
2019-03-05T10:23:13.592Z,56.90
2019-03-05T10:25:43.419Z,57.10
2019-03-05T10:28:13.209Z,57.30
2019-03-05T10:30:43.692Z,57.80
2019-03-05T10:33:16.133Z,57.00
2019-03-05T10:35:46.015Z,57.00
2019-03-05T10:38:16.085Z,56.50
2019-03-05T10:40:47.752Z,56.30
2019-03-05T10:43:18.190Z,56.40
2019-03-05T10:45:48.856Z,55.00
2019-03-05T10:48:20.005Z,55.30
2019-03-05T10:50:49.889Z,54.90
2019-03-05T10:53:20.060Z,54.60
2019-03-05T10:55:50.021Z,53.80
2019-03-05T10:58:20.809Z,53.90
2019-03-05T11:00:55.093Z,54.00
2019-03-05T11:03:30.377Z,54.30
2019-03-05T11:06:00.785Z,54.10
2019-03-05T11:08:31.085Z,54.70
2019-03-05T11:11:12.551Z,54.90
2019-03-05T11:13:32.978Z,55.30
2019-03-05T11:16:05.316Z,55.30
2019-03-05T11:18:36.509Z,56.80
2019-03-05T11:21:07.269Z,57.70
2019-03-05T11:23:37.274Z,58.30
2019-03-05T11:26:07.162Z,59.10
2019-03-05T11:28:37.677Z,60.10
2019-03-05T11:31:08.642Z,59.70
2019-03-05T11:33:38.440Z,59.90
2019-03-05T11:36:08.261Z,59.10
2019-03-05T11:38:38.149Z,59.20
2019-03-05T11:41:08.121Z,60.00
2019-03-05T11:43:37.949Z,59.20
2019-03-05T11:46:10.854Z,58.70
2019-03-05T11:48:40.673Z,58.90
2019-03-05T11:51:10.500Z,59.20
2019-03-05T11:53:40.362Z,59.50
2019-03-05T11:56:10.997Z,59.80
2019-03-05T11:58:40.810Z,59.70
2019-03-05T12:01:12.389Z,60.00
2019-03-05T12:03:43.058Z,60.40
2019-03-05T12:06:12.930Z,60.50
2019-03-05T12:08:42.770Z,60.00
2019-03-05T12:11:12.670Z,59.80
2019-03-05T12:13:42.775Z,60.30
2019-03-05T12:16:12.745Z,59.90
2019-03-05T12:18:43.422Z,60.80
2019-03-05T12:21:13.280Z,60.90
2019-03-05T12:23:46.834Z,60.40
2019-03-05T12:26:15.676Z,60.70
2019-03-05T12:28:45.478Z,60.20
2019-03-05T12:31:15.374Z,60.20
2019-03-05T12:33:45.946Z,60.60
2019-03-05T12:36:15.921Z,61.50
2019-03-05T12:38:46.370Z,62.40
2019-03-05T12:41:16.410Z,63.20
2019-03-05T12:43:46.341Z,63.80
2019-03-05T12:46:16.935Z,65.10
2019-03-05T12:48:46.999Z,65.80
2019-03-05T12:51:16.925Z,66.90
2019-03-05T12:53:47.442Z,67.10
2019-03-05T12:56:24.013Z,67.90
2019-03-05T12:58:48.854Z,68.70
2019-03-05T13:01:21.105Z,68.10
2019-03-05T13:03:51.981Z,68.40
2019-03-05T13:06:21.878Z,68.10
2019-03-05T13:08:52.188Z,68.40
2019-03-05T13:11:22.037Z,68.50
2019-03-05T13:14:05.431Z,68.90
2019-03-05T13:16:23.771Z,69.40
2019-03-05T13:18:53.657Z,69.50
2019-03-05T13:21:23.526Z,69.20
2019-03-05T13:23:53.619Z,69.60
2019-03-05T13:26:23.474Z,70.20
2019-03-05T13:28:53.554Z,70.30
2019-03-05T13:31:24.437Z,70.30
2019-03-05T13:33:54.996Z,70.00
2019-03-05T13:36:25.147Z,70.30
2019-03-05T13:38:54.958Z,70.40
2019-03-05T13:41:25.682Z,70.10
2019-03-05T13:43:55.696Z,70.90
2019-03-05T13:46:29.685Z,70.40
2019-03-05T13:49:09.328Z,70.50
2019-03-05T13:51:59.714Z,70.00
2019-03-05T13:54:48.499Z,70.60
2019-03-05T13:57:37.385Z,70.40
2019-03-05T14:00:10.793Z,70.20
2019-03-05T14:03:03.742Z,70.50
2019-03-05T14:05:49.306Z,70.80
2019-03-05T14:08:22.407Z,71.20
2019-03-05T14:10:52.270Z,71.70
2019-03-05T14:13:23.618Z,71.60
2019-03-05T14:15:54.754Z,72.10
2019-03-05T14:18:24.663Z,72.10
2019-03-05T14:20:54.825Z,72.40
2019-03-05T14:23:24.694Z,72.20
2019-03-05T14:25:55.258Z,72.20
2019-03-05T14:28:25.174Z,72.20
2019-03-05T14:30:54.993Z,72.60
2019-03-05T14:33:24.961Z,72.60
2019-03-05T14:35:54.809Z,72.80
2019-03-05T14:38:24.819Z,72.90
2019-03-05T14:40:56.103Z,73.10
2019-03-05T14:43:26.056Z,73.60
2019-03-05T14:45:55.913Z,73.40
2019-03-05T14:48:26.802Z,73.60
2019-03-05T14:50:56.667Z,73.80
2019-03-05T14:53:26.502Z,73.90
2019-03-05T14:55:56.396Z,73.60
2019-03-05T14:58:26.298Z,73.80
2019-03-05T15:00:56.353Z,74.00
2019-03-05T15:03:26.237Z,74.30
2019-03-05T15:05:56.242Z,74.40
2019-03-05T15:08:26.044Z,74.10
2019-03-05T15:10:55.898Z,74.00
2019-03-05T15:13:25.838Z,74.40
2019-03-05T15:15:55.732Z,73.90
2019-03-05T15:18:25.540Z,74.10
2019-03-05T15:20:55.613Z,74.70
2019-03-05T15:23:25.567Z,74.30
2019-03-05T15:25:55.362Z,74.50
2019-03-05T15:28:25.183Z,75.10
2019-03-05T15:30:55.033Z,75.10
2019-03-05T15:33:24.854Z,75.00
2019-03-05T15:35:54.747Z,75.00
2019-03-05T15:38:25.323Z,75.00
2019-03-05T15:40:55.273Z,75.10
2019-03-05T15:43:25.300Z,75.20
2019-03-05T15:45:55.217Z,75.00
2019-03-05T15:48:25.141Z,74.90
2019-03-05T15:50:54.976Z,75.20
2019-03-05T15:53:27.478Z,75.50
2019-03-05T15:55:56.365Z,75.60
2019-03-05T15:58:26.294Z,76.00
2019-03-05T16:00:56.267Z,76.20
2019-03-05T16:03:26.249Z,76.40
2019-03-05T16:08:57.973Z,75.90
2019-03-05T16:11:26.484Z,75.90
2019-03-05T16:13:56.937Z,76.10
2019-03-05T16:16:27.874Z,75.90
2019-03-05T16:18:58.761Z,76.00
2019-03-05T16:21:28.615Z,76.00
2019-03-05T16:24:01.639Z,75.60
2019-03-05T16:26:30.094Z,76.10
2019-03-05T16:28:59.979Z,75.90
2019-03-05T16:31:31.779Z,75.80
2019-03-05T16:34:09.468Z,75.80
2019-03-05T16:36:39.349Z,75.80
2019-03-05T16:39:27.429Z,75.80
2019-03-05T16:42:12.323Z,75.70
2019-03-05T16:44:52.781Z,75.70
2019-03-05T16:47:24.225Z,75.50
2019-03-05T16:50:05.505Z,75.30
2019-03-05T16:52:53.441Z,75.20
2019-03-05T16:55:27.585Z,75.50
2019-03-05T16:58:15.297Z,75.60
2019-03-05T17:00:49.139Z,75.40
2019-03-05T17:03:31.916Z,75.10
2019-03-05T17:06:19.357Z,75.30
2019-03-05T17:08:53.709Z,75.30
2019-03-05T17:11:41.234Z,75.00
2019-03-05T17:14:11.385Z,75.90
2019-03-05T17:16:41.550Z,75.20
2019-03-05T17:19:11.498Z,75.30
2019-03-05T17:21:41.393Z,75.20
2019-03-05T17:24:11.341Z,75.30
2019-03-05T17:26:41.230Z,75.20
2019-03-05T17:29:11.119Z,75.40
2019-03-05T17:31:41.093Z,75.30
2019-03-05T17:34:11.890Z,75.40
2019-03-05T17:36:41.813Z,75.60
2019-03-05T17:39:14.559Z,75.80
2019-03-05T17:41:44.843Z,76.00
2019-03-05T17:44:14.873Z,76.30
2019-03-05T17:46:45.028Z,76.60
2019-03-05T17:49:14.925Z,77.10
2019-03-05T17:51:44.837Z,77.20
2019-03-05T17:54:14.727Z,77.60
2019-03-05T17:56:44.564Z,77.90
2019-03-05T17:59:14.517Z,78.00
2019-03-05T18:01:44.418Z,78.20
2019-03-05T18:04:14.980Z,78.20
2019-03-05T18:06:45.845Z,78.10
2019-03-05T18:09:16.753Z,78.10
2019-03-05T18:11:46.774Z,78.00
2019-03-05T18:14:16.594Z,77.90
2019-03-05T18:16:46.365Z,78.00
2019-03-05T18:19:17.549Z,77.90
2019-03-05T18:21:47.314Z,78.10
2019-03-05T18:24:17.217Z,78.30
2019-03-05T18:26:47.272Z,78.20
2019-03-05T18:29:17.157Z,78.50
2019-03-05T18:31:47.229Z,78.40
2019-03-05T18:34:17.127Z,78.30
2019-03-05T18:36:47.084Z,78.50
2019-03-05T18:39:17.941Z,78.30
2019-03-05T18:41:47.842Z,78.40
2019-03-05T18:44:17.794Z,78.30
2019-03-05T18:46:47.648Z,78.50
2019-03-05T18:49:17.589Z,78.50
2019-03-05T18:51:47.474Z,78.40
2019-03-05T18:54:17.385Z,78.10
2019-03-05T18:56:47.255Z,78.00
2019-03-05T18:59:17.083Z,78.00
2019-03-05T19:01:46.908Z,78.00
2019-03-05T19:04:16.814Z,77.90
2019-03-05T19:06:46.913Z,77.80
2019-03-05T19:09:16.744Z,77.80
2019-03-05T19:11:46.881Z,77.80
2019-03-05T19:14:16.745Z,77.80
2019-03-05T19:16:46.689Z,77.80
2019-03-05T19:19:16.590Z,77.80
2019-03-05T19:21:46.354Z,77.80
2019-03-05T19:24:16.119Z,78.00
2019-03-05T19:26:46.001Z,77.90
2019-03-05T19:29:15.830Z,77.90
2019-03-05T19:31:45.666Z,77.90
2019-03-05T19:34:15.558Z,77.90
2019-03-05T19:36:45.365Z,77.90
2019-03-05T19:39:15.351Z,77.90
2019-03-05T19:41:45.464Z,77.90
2019-03-05T19:44:15.371Z,77.80
2019-03-05T19:46:45.126Z,77.80
2019-03-05T19:49:15.083Z,77.80
2019-03-05T19:51:45.153Z,77.70
2019-03-05T19:54:14.971Z,77.60
2019-03-05T19:56:44.834Z,77.50
2019-03-05T19:59:14.622Z,77.50
2019-03-05T20:01:44.398Z,77.60
2019-03-05T20:04:14.466Z,77.60
2019-03-05T20:06:44.287Z,77.60
2019-03-05T20:09:16.628Z,77.80
2019-03-05T20:11:46.549Z,77.90
2019-03-05T20:14:16.590Z,77.80
2019-03-05T20:16:46.418Z,77.90
2019-03-05T20:19:16.301Z,77.60
2019-03-05T20:21:46.113Z,77.60
2019-03-05T20:24:15.961Z,77.80
2019-03-05T20:26:46.165Z,77.90
2019-03-05T20:29:16.259Z,78.00
2019-03-05T20:31:47.122Z,78.10
2019-03-05T20:34:16.999Z,78.10
2019-03-05T20:36:46.955Z,78.20
2019-03-05T20:39:16.854Z,78.20
2019-03-05T20:41:46.809Z,78.40
2019-03-05T20:44:16.609Z,78.40
2019-03-05T20:46:46.373Z,78.50
2019-03-05T20:49:16.214Z,78.50
2019-03-05T20:51:46.208Z,78.50
2019-03-05T20:54:16.157Z,78.50
2019-03-05T20:56:46.047Z,78.40
2019-03-05T20:59:15.930Z,78.50
2019-03-05T21:01:45.758Z,78.30
2019-03-05T21:04:15.710Z,78.20
2019-03-05T21:06:45.570Z,78.30
2019-03-05T21:09:22.330Z,78.30
2019-03-05T21:11:52.138Z,78.20
2019-03-05T21:14:22.057Z,78.30
2019-03-05T21:16:52.060Z,78.50
2019-03-05T21:19:21.880Z,78.50
2019-03-05T21:21:51.690Z,78.50
2019-03-05T21:24:21.538Z,78.60
2019-03-05T21:26:51.426Z,78.50
2019-03-05T21:29:21.325Z,78.60
2019-03-05T21:31:51.191Z,78.70
2019-03-05T21:34:21.018Z,78.70
2019-03-05T21:36:51.122Z,78.60
2019-03-05T21:39:20.979Z,78.70
2019-03-05T21:41:50.741Z,78.70
2019-03-05T21:44:20.629Z,78.50
2019-03-05T21:46:51.429Z,78.60
2019-03-05T21:49:21.222Z,78.50
2019-03-05T21:51:51.170Z,78.60
2019-03-05T21:54:20.973Z,78.60
2019-03-05T21:56:51.827Z,78.60
2019-03-05T21:59:21.809Z,78.60
2019-03-05T22:01:51.669Z,78.50
2019-03-05T22:04:21.545Z,78.30
2019-03-05T22:06:51.358Z,78.40
2019-03-05T22:09:21.187Z,78.30
2019-03-05T22:11:51.840Z,78.20
2019-03-05T22:14:21.749Z,78.20
2019-03-05T22:16:51.665Z,78.10
2019-03-05T22:19:21.494Z,78.00
2019-03-05T22:21:51.670Z,77.90
2019-03-05T22:24:21.642Z,77.80
2019-03-05T22:26:51.538Z,77.80
2019-03-05T22:29:21.387Z,77.90
2019-03-05T22:31:51.294Z,77.90
2019-03-05T22:34:21.102Z,77.90
2019-03-05T22:36:50.999Z,77.80
2019-03-05T22:39:21.107Z,77.70
2019-03-05T22:41:51.011Z,77.70
2019-03-05T22:44:20.802Z,77.80
2019-03-05T22:46:50.682Z,78.10
2019-03-05T22:49:20.581Z,78.20
2019-03-05T22:51:50.402Z,78.40
2019-03-05T22:54:20.297Z,78.50
2019-03-05T22:56:51.262Z,78.50
2019-03-05T22:59:21.024Z,78.40
2019-03-05T23:01:51.172Z,78.50
2019-03-05T23:04:24.141Z,78.70
2019-03-05T23:06:53.990Z,78.30
2019-03-05T23:09:24.356Z,79.20
2019-03-05T23:11:54.705Z,79.40
2019-03-05T23:14:24.806Z,79.50
2019-03-05T23:16:54.821Z,79.60
2019-03-05T23:19:25.285Z,79.60
2019-03-05T23:21:55.232Z,79.50
2019-03-05T23:24:25.141Z,79.50
2019-03-05T23:26:54.901Z,79.50
2019-03-05T23:29:26.485Z,79.40
2019-03-05T23:31:56.251Z,79.30
2019-03-05T23:34:26.014Z,79.30
2019-03-05T23:36:56.105Z,79.20
2019-03-05T23:39:25.878Z,79.10
2019-03-05T23:41:56.041Z,78.90
2019-03-05T23:44:25.902Z,78.70
2019-03-05T23:46:55.696Z,78.60
2019-03-05T23:49:25.521Z,78.60
2019-03-05T23:51:55.386Z,78.50
2019-03-05T23:54:25.532Z,78.80
2019-03-05T23:56:55.330Z,78.30
2019-03-05T23:59:25.144Z,78.30
